General Piran, Argentina
Current Conditions -  °F | °C
As of 5:00 AM on Saturday 20 Dec 2014 (Local Time) from SAZM Reporting Station
Broken Clouds Broken Clouds  
Wind Chill: 17°   Ceiling: 10000
Heat Index: 17°   Visibility: 5mi
Dew Point: 14°   Wind: 0mph
Humidity: 82%   Direction: NA
Pressure: 29.5"   Gusts: NA
Location:  37.28°S, 57.79°W
Report Text: SAZM 200800Z 00000KT 8000 SCT025 BKN10017/14 Q0999
Loading
Personal Weather Stations






























Interactive Weather Map New forecast layout! Learn more

10-Day Weather Forecast

Advertisements
Track Severe Weather on mobile